Klik op de webcam foto voor een grotere versieKlik op de webcam foto voor een grotere versie
Of klik hier voor
de webcam video


Weerstation
Wilsele-Leuven:Website of another weatherstation



Nabijgelegen vliegvelden - METAR rapporten

   
EBBR - Vaartkom-Leuven
Gewijzigd: 08-07-2020 09:20
Motregen, Regen, Grotendeels bewolkt    Wind: ZZW 15 km/h
Motregen, Regen, Grotendeels bewolkt
Wind: Wind: ZZW 15 km/h
Temperatuur: 13°C
Dauwpunt: 13°C
Vochtigheid: 100%
Barometer: 1015 hPa
Bewolking: Grotendeels bewolkt
Zicht: 4 km
Bewolking: Licht bewolkt 91.4 m,
Grotendeels bewolkt 152.4 m
EBBR 080720Z 21008KT 3500 DZRA FEW003 BKN005 13/13 Q1015 NOSIG
EBAW - Antwerp
Gewijzigd: 08-07-2020 09:20
Wat regen mogelijk, Grotendeels bewolkt    Wind: ZZW 13 km/h
Wat regen mogelijk, Grotendeels bewolkt
Wind: Wind: ZZW 13 km/h
Temperatuur: 14°C
Dauwpunt: 13°C
Vochtigheid: 94%
Barometer: 1015 hPa
Bewolking: Grotendeels bewolkt
Zicht: meer dan 10 km
Bewolking: Gedeeltelijk bewolkt 121.9 m,
Grotendeels bewolkt 182.9 m
EBAW 080720Z 21007KT 9999 -RA SCT004 BKN006 14/13 Q1015 TEMPO 4000 BKN003
EBLG - Liège
Gewijzigd: 08-07-2020 09:20
Wat regen mogelijk, Motregen, Grotendeels bewolkt    Wind: ZZW 17 km/h
Wat regen mogelijk, Motregen, Grotendeels bewolkt
Wind: Wind: ZZW 17 km/h
Temperatuur: 12°C
Dauwpunt: 11°C
Vochtigheid: 94%
Barometer: 1016 hPa
Bewolking: Grotendeels bewolkt
Zicht: 5 km
Bewolking: Grotendeels bewolkt 121.9 m,
Grotendeels bewolkt 426.7 m
EBLG 080720Z 20009KT 5000 -RADZ BKN004 BKN014 12/11 Q1016 TEMPO 3500 RADZ
EBCV - Mons/Bergen
Gewijzigd: 08-07-2020 09:25
Wat regen mogelijk, Bewolking    Wind: ZZW 17 km/h
Wat regen mogelijk, Bewolking
Wind: Wind: ZZW 17 km/h
Temperatuur: 13°C
Dauwpunt: 13°C
Vochtigheid: 100%
Barometer: 1015 hPa
Bewolking: Bewolking
Zicht: 4 km
Bewolking: Grotendeels bewolkt 182.9 m,
Bewolking 883.9 m
EBCV 080725Z AUTO 21009KT 3800 -RA BKN006/// OVC029/// 13/13 Q1015 YLO
EHBK - Maastricht
Gewijzigd: 08-07-2020 09:25
Wat regen mogelijk, Grotendeels bewolkt    Wind: ZW 17 km/h
Wat regen mogelijk, Grotendeels bewolkt
Wind: Wind: ZW 17 km/h
Temperatuur: 12°C
Dauwpunt: 12°C
Vochtigheid: 100%
Barometer: 1016 hPa
Bewolking: Grotendeels bewolkt
Zicht: meer dan 10 km
Bewolking: Gedeeltelijk bewolkt 61 m,
Grotendeels bewolkt 121.9 m,
Grotendeels bewolkt 213.4 m,
Licht bewolkt 457.2 m
EHBK 080725Z AUTO 22009KT 9999 -RA SCT002 BKN004 BKN007 FEW015CB 12/12 Q1016 TEMPO 6000 RADZ BKN004
ELLX - Luxemburg
Gewijzigd: 08-07-2020 09:20
Helder    Wind: Westen 20 km/h
Helder
Wind: Wind: Westen 20 km/h
Temperatuur: 15°C
Dauwpunt: 6°C
Vochtigheid: 55%
Barometer: 1017 hPa
Zicht: meer dan 10 km
Bewolking: Helder
ELLX 080720Z 26011KT CAVOK 15/06 Q1017 NOSIG
EBOS - Oostende
Gewijzigd: 08-07-2020 09:20
Wat regen mogelijk, Motregen, Grotendeels bewolkt    Wind: Westen 24 km/h
Wat regen mogelijk, Motregen, Grotendeels bewolkt
Wind: Wind: Westen 24 km/h
Temperatuur: 15°C
Dauwpunt: 14°C
Vochtigheid: 94%
Barometer: 1015 hPa
Bewolking: Grotendeels bewolkt
Zicht: 7 km
Bewolking: Gedeeltelijk bewolkt 121.9 m,
Grotendeels bewolkt 182.9 m,
Grotendeels bewolkt 487.7 m
EBOS 080720Z 27013KT 7000 -RADZ SCT004 BKN006 BKN016 15/14 Q1015 TEMPO 3500 RADZ BKN004
  

Script ontwikkeld door  Saratoga-weather.org Aangepast voor de template door  Weerstation Leuven

U vindt ons ook hier:

ambientweather.net/

UK Metoffice

WeatherCloud

European Weather Network

Weather Underground

Bernelux Weather Network

AWEKAS

WeatherlinkIP

Citizen Weather Observer Program (CWOP)

HAMweather, WeatherForYou, PWS Weather

Apparatuur in gebruik:

Weer-station
Davis VUE

Weer-programma
Meteobridge

Weer-computer
Nano-SD

Webleverancier
Robohost

Davis VUE

Meteobridge

Nano-SD

Robohost